sensor_id;sensor_type;location;lat;lon;timestamp;P1;durP1;ratioP1;P2;durP2;ratioP2
12535;SDS011;6334;48.696;2.114;2023-05-27T00:00:16;13.10;;;5.03;;
12535;SDS011;6334;48.696;2.114;2023-05-27T00:02:47;9.93;;;4.43;;
12535;SDS011;6334;48.696;2.114;2023-05-27T00:05:17;12.23;;;4.97;;
12535;SDS011;6334;48.696;2.114;2023-05-27T00:07:48;13.57;;;4.80;;
12535;SDS011;6334;48.696;2.114;2023-05-27T00:10:18;11.53;;;4.93;;
12535;SDS011;6334;48.696;2.114;2023-05-27T00:12:48;13.77;;;5.27;;
12535;SDS011;6334;48.696;2.114;2023-05-27T00:15:19;9.90;;;4.37;;
12535;SDS011;6334;48.696;2.114;2023-05-27T00:17:49;10.30;;;4.67;;
12535;SDS011;6334;48.696;2.114;2023-05-27T00:20:21;12.03;;;5.17;;
12535;SDS011;6334;48.696;2.114;2023-05-27T00:22:50;11.90;;;5.20;;
12535;SDS011;6334;48.696;2.114;2023-05-27T00:25:21;11.03;;;4.97;;
12535;SDS011;6334;48.696;2.114;2023-05-27T00:27:51;8.33;;;4.60;;
12535;SDS011;6334;48.696;2.114;2023-05-27T00:30:23;11.10;;;5.13;;
12535;SDS011;6334;48.696;2.114;2023-05-27T00:32:54;13.17;;;5.30;;
12535;SDS011;6334;48.696;2.114;2023-05-27T00:35:24;12.73;;;5.47;;
12535;SDS011;6334;48.696;2.114;2023-05-27T00:37:54;13.70;;;5.43;;
12535;SDS011;6334;48.696;2.114;2023-05-27T00:40:25;14.63;;;5.57;;
12535;SDS011;6334;48.696;2.114;2023-05-27T00:42:55;13.17;;;5.23;;
12535;SDS011;6334;48.696;2.114;2023-05-27T00:45:25;10.77;;;5.37;;
12535;SDS011;6334;48.696;2.114;2023-05-27T00:47:56;11.60;;;5.10;;
12535;SDS011;6334;48.696;2.114;2023-05-27T00:50:26;10.53;;;4.53;;
12535;SDS011;6334;48.696;2.114;2023-05-27T00:52:57;15.80;;;5.17;;
12535;SDS011;6334;48.696;2.114;2023-05-27T00:55:27;12.63;;;4.90;;
12535;SDS011;6334;48.696;2.114;2023-05-27T00:57:58;11.90;;;4.83;;
12535;SDS011;6334;48.696;2.114;2023-05-27T01:00:28;11.70;;;4.40;;
12535;SDS011;6334;48.696;2.114;2023-05-27T01:02:59;12.57;;;4.43;;
12535;SDS011;6334;48.696;2.114;2023-05-27T01:05:29;13.80;;;5.77;;
12535;SDS011;6334;48.696;2.114;2023-05-27T01:10:51;8.73;;;4.33;;
12535;SDS011;6334;48.696;2.114;2023-05-27T01:15:51;9.27;;;4.90;;
12535;SDS011;6334;48.696;2.114;2023-05-27T01:18:22;14.13;;;5.13;;
12535;SDS011;6334;48.696;2.114;2023-05-27T01:20:52;14.53;;;5.20;;
12535;SDS011;6334;48.696;2.114;2023-05-27T01:23:22;10.67;;;5.10;;
12535;SDS011;6334;48.696;2.114;2023-05-27T01:25:53;10.37;;;4.87;;
12535;SDS011;6334;48.696;2.114;2023-05-27T01:28:23;11.33;;;5.03;;
12535;SDS011;6334;48.696;2.114;2023-05-27T01:30:54;10.23;;;4.47;;
12535;SDS011;6334;48.696;2.114;2023-05-27T01:33:25;11.50;;;4.60;;
12535;SDS011;6334;48.696;2.114;2023-05-27T01:35:55;12.90;;;4.90;;
12535;SDS011;6334;48.696;2.114;2023-05-27T01:38:25;11.27;;;4.70;;
12535;SDS011;6334;48.696;2.114;2023-05-27T01:40:56;9.73;;;4.60;;
12535;SDS011;6334;48.696;2.114;2023-05-27T01:43:26;8.70;;;4.53;;
12535;SDS011;6334;48.696;2.114;2023-05-27T01:45:57;9.70;;;4.47;;
12535;SDS011;6334;48.696;2.114;2023-05-27T01:48:27;14.10;;;4.60;;
12535;SDS011;6334;48.696;2.114;2023-05-27T01:50:57;12.10;;;4.90;;
12535;SDS011;6334;48.696;2.114;2023-05-27T01:53:28;10.80;;;4.90;;
12535;SDS011;6334;48.696;2.114;2023-05-27T01:55:58;10.20;;;4.60;;
12535;SDS011;6334;48.696;2.114;2023-05-27T01:58:29;11.20;;;5.17;;
12535;SDS011;6334;48.696;2.114;2023-05-27T02:00:59;9.50;;;4.83;;
12535;SDS011;6334;48.696;2.114;2023-05-27T02:03:30;11.00;;;5.03;;
12535;SDS011;6334;48.696;2.114;2023-05-27T02:06:00;15.67;;;5.07;;
12535;SDS011;6334;48.696;2.114;2023-05-27T02:08:31;11.17;;;4.67;;
12535;SDS011;6334;48.696;2.114;2023-05-27T02:11:01;12.20;;;5.13;;
12535;SDS011;6334;48.696;2.114;2023-05-27T02:13:32;12.77;;;4.97;;
12535;SDS011;6334;48.696;2.114;2023-05-27T02:16:02;13.33;;;5.13;;
12535;SDS011;6334;48.696;2.114;2023-05-27T02:18:33;12.77;;;5.20;;
12535;SDS011;6334;48.696;2.114;2023-05-27T02:21:03;10.33;;;4.90;;
12535;SDS011;6334;48.696;2.114;2023-05-27T02:23:33;11.37;;;5.10;;
12535;SDS011;6334;48.696;2.114;2023-05-27T02:26:05;11.70;;;4.87;;
12535;SDS011;6334;48.696;2.114;2023-05-27T02:28:36;11.50;;;4.70;;
12535;SDS011;6334;48.696;2.114;2023-05-27T02:31:06;10.77;;;4.30;;
12535;SDS011;6334;48.696;2.114;2023-05-27T02:33:38;11.00;;;4.60;;
12535;SDS011;6334;48.696;2.114;2023-05-27T02:36:08;13.10;;;4.90;;
12535;SDS011;6334;48.696;2.114;2023-05-27T02:38:39;10.40;;;4.50;;
12535;SDS011;6334;48.696;2.114;2023-05-27T02:41:09;12.20;;;4.63;;
12535;SDS011;6334;48.696;2.114;2023-05-27T02:43:40;10.60;;;4.53;;
12535;SDS011;6334;48.696;2.114;2023-05-27T02:46:11;13.33;;;4.70;;
12535;SDS011;6334;48.696;2.114;2023-05-27T02:48:42;9.87;;;4.23;;
12535;SDS011;6334;48.696;2.114;2023-05-27T02:51:12;10.73;;;4.47;;
12535;SDS011;6334;48.696;2.114;2023-05-27T02:53:43;11.80;;;4.30;;
12535;SDS011;6334;48.696;2.114;2023-05-27T02:56:13;10.57;;;4.90;;
12535;SDS011;6334;48.696;2.114;2023-05-27T02:58:44;12.07;;;4.53;;
12535;SDS011;6334;48.696;2.114;2023-05-27T03:01:16;10.20;;;4.57;;
12535;SDS011;6334;48.696;2.114;2023-05-27T03:03:46;11.73;;;4.70;;
12535;SDS011;6334;48.696;2.114;2023-05-27T03:06:17;10.43;;;4.40;;
12535;SDS011;6334;48.696;2.114;2023-05-27T03:08:47;11.07;;;4.67;;
12535;SDS011;6334;48.696;2.114;2023-05-27T03:11:19;13.63;;;4.43;;
12535;SDS011;6334;48.696;2.114;2023-05-27T03:13:49;11.50;;;4.50;;
12535;SDS011;6334;48.696;2.114;2023-05-27T03:16:19;8.80;;;4.43;;
12535;SDS011;6334;48.696;2.114;2023-05-27T03:18:50;12.40;;;5.23;;
12535;SDS011;6334;48.696;2.114;2023-05-27T03:21:20;12.43;;;4.63;;
12535;SDS011;6334;48.696;2.114;2023-05-27T03:23:51;11.37;;;5.20;;
12535;SDS011;6334;48.696;2.114;2023-05-27T03:26:21;11.37;;;4.83;;
12535;SDS011;6334;48.696;2.114;2023-05-27T03:28:52;12.77;;;4.60;;
12535;SDS011;6334;48.696;2.114;2023-05-27T03:31:22;7.80;;;4.20;;
12535;SDS011;6334;48.696;2.114;2023-05-27T03:33:53;8.37;;;4.50;;
12535;SDS011;6334;48.696;2.114;2023-05-27T03:36:25;9.20;;;4.30;;
12535;SDS011;6334;48.696;2.114;2023-05-27T03:38:55;11.27;;;4.63;;
12535;SDS011;6334;48.696;2.114;2023-05-27T03:41:25;10.40;;;4.33;;
12535;SDS011;6334;48.696;2.114;2023-05-27T03:43:56;8.73;;;4.27;;
12535;SDS011;6334;48.696;2.114;2023-05-27T03:46:26;9.87;;;4.43;;
12535;SDS011;6334;48.696;2.114;2023-05-27T03:48:57;15.07;;;5.53;;
12535;SDS011;6334;48.696;2.114;2023-05-27T03:51:27;11.37;;;4.40;;
12535;SDS011;6334;48.696;2.114;2023-05-27T03:53:58;11.83;;;4.50;;
12535;SDS011;6334;48.696;2.114;2023-05-27T03:56:28;7.73;;;4.53;;
12535;SDS011;6334;48.696;2.114;2023-05-27T03:58:59;9.03;;;4.13;;
12535;SDS011;6334;48.696;2.114;2023-05-27T04:01:29;12.77;;;4.90;;
12535;SDS011;6334;48.696;2.114;2023-05-27T04:04:00;11.23;;;4.37;;
12535;SDS011;6334;48.696;2.114;2023-05-27T04:06:31;11.60;;;4.90;;
12535;SDS011;6334;48.696;2.114;2023-05-27T04:09:02;10.83;;;4.50;;
12535;SDS011;6334;48.696;2.114;2023-05-27T04:11:32;7.97;;;4.63;;
12535;SDS011;6334;48.696;2.114;2023-05-27T04:14:02;10.33;;;4.33;;
12535;SDS011;6334;48.696;2.114;2023-05-27T04:16:33;9.03;;;3.93;;
12535;SDS011;6334;48.696;2.114;2023-05-27T04:19:03;13.20;;;4.27;;
12535;SDS011;6334;48.696;2.114;2023-05-27T04:21:34;8.07;;;4.67;;
12535;SDS011;6334;48.696;2.114;2023-05-27T04:24:04;11.63;;;4.60;;
12535;SDS011;6334;48.696;2.114;2023-05-27T04:26:35;9.40;;;4.43;;
12535;SDS011;6334;48.696;2.114;2023-05-27T04:29:05;9.73;;;4.50;;
12535;SDS011;6334;48.696;2.114;2023-05-27T04:31:36;11.80;;;4.60;;
12535;SDS011;6334;48.696;2.114;2023-05-27T04:34:06;7.33;;;3.83;;
12535;SDS011;6334;48.696;2.114;2023-05-27T04:36:37;9.43;;;4.03;;
12535;SDS011;6334;48.696;2.114;2023-05-27T04:39:07;9.50;;;4.37;;
12535;SDS011;6334;48.696;2.114;2023-05-27T04:41:38;9.47;;;4.43;;
12535;SDS011;6334;48.696;2.114;2023-05-27T04:44:08;11.00;;;4.40;;
12535;SDS011;6334;48.696;2.114;2023-05-27T04:46:38;13.07;;;4.57;;
12535;SDS011;6334;48.696;2.114;2023-05-27T04:49:09;6.23;;;4.10;;
12535;SDS011;6334;48.696;2.114;2023-05-27T04:51:39;10.80;;;4.53;;
12535;SDS011;6334;48.696;2.114;2023-05-27T04:54:10;10.63;;;4.77;;
12535;SDS011;6334;48.696;2.114;2023-05-27T04:56:39;9.60;;;4.13;;
12535;SDS011;6334;48.696;2.114;2023-05-27T04:59:10;9.53;;;4.20;;
12535;SDS011;6334;48.696;2.114;2023-05-27T05:01:42;9.20;;;4.23;;
12535;SDS011;6334;48.696;2.114;2023-05-27T05:04:30;8.37;;;4.00;;
12535;SDS011;6334;48.696;2.114;2023-05-27T05:07:00;11.33;;;4.73;;
12535;SDS011;6334;48.696;2.114;2023-05-27T05:09:31;7.07;;;4.13;;
12535;SDS011;6334;48.696;2.114;2023-05-27T05:12:02;7.67;;;4.17;;
12535;SDS011;6334;48.696;2.114;2023-05-27T05:14:33;9.23;;;4.40;;
12535;SDS011;6334;48.696;2.114;2023-05-27T05:17:04;10.13;;;4.13;;
12535;SDS011;6334;48.696;2.114;2023-05-27T05:19:34;9.97;;;4.63;;
12535;SDS011;6334;48.696;2.114;2023-05-27T05:22:04;8.97;;;4.33;;
12535;SDS011;6334;48.696;2.114;2023-05-27T05:24:35;11.80;;;4.40;;
12535;SDS011;6334;48.696;2.114;2023-05-27T05:27:05;9.17;;;4.70;;
12535;SDS011;6334;48.696;2.114;2023-05-27T05:29:36;13.53;;;4.90;;
12535;SDS011;6334;48.696;2.114;2023-05-27T05:32:06;7.97;;;4.00;;
12535;SDS011;6334;48.696;2.114;2023-05-27T05:34:39;8.53;;;4.10;;
12535;SDS011;6334;48.696;2.114;2023-05-27T05:37:10;7.70;;;4.20;;
12535;SDS011;6334;48.696;2.114;2023-05-27T05:39:41;6.57;;;3.77;;
12535;SDS011;6334;48.696;2.114;2023-05-27T05:42:11;8.10;;;3.87;;
12535;SDS011;6334;48.696;2.114;2023-05-27T05:44:41;12.60;;;4.73;;
12535;SDS011;6334;48.696;2.114;2023-05-27T05:47:12;8.20;;;3.80;;
12535;SDS011;6334;48.696;2.114;2023-05-27T05:49:42;9.47;;;4.37;;
12535;SDS011;6334;48.696;2.114;2023-05-27T05:52:13;11.27;;;4.90;;
12535;SDS011;6334;48.696;2.114;2023-05-27T05:54:43;8.17;;;3.80;;
12535;SDS011;6334;48.696;2.114;2023-05-27T05:57:15;6.57;;;3.70;;
12535;SDS011;6334;48.696;2.114;2023-05-27T05:59:45;12.63;;;4.73;;
12535;SDS011;6334;48.696;2.114;2023-05-27T06:02:16;9.70;;;3.90;;
12535;SDS011;6334;48.696;2.114;2023-05-27T06:04:46;7.07;;;4.17;;
12535;SDS011;6334;48.696;2.114;2023-05-27T06:07:17;7.10;;;4.07;;
12535;SDS011;6334;48.696;2.114;2023-05-27T06:09:47;7.53;;;4.20;;
12535;SDS011;6334;48.696;2.114;2023-05-27T06:12:18;11.17;;;4.70;;
12535;SDS011;6334;48.696;2.114;2023-05-27T06:14:48;8.30;;;3.73;;
12535;SDS011;6334;48.696;2.114;2023-05-27T06:17:18;10.33;;;3.87;;
12535;SDS011;6334;48.696;2.114;2023-05-27T06:19:49;10.10;;;4.40;;
12535;SDS011;6334;48.696;2.114;2023-05-27T06:22:19;8.23;;;4.00;;
12535;SDS011;6334;48.696;2.114;2023-05-27T06:24:50;6.23;;;3.87;;
12535;SDS011;6334;48.696;2.114;2023-05-27T06:27:20;10.90;;;4.40;;
12535;SDS011;6334;48.696;2.114;2023-05-27T06:29:51;9.67;;;4.20;;
12535;SDS011;6334;48.696;2.114;2023-05-27T06:32:21;7.20;;;3.63;;
12535;SDS011;6334;48.696;2.114;2023-05-27T06:34:52;8.80;;;3.83;;
12535;SDS011;6334;48.696;2.114;2023-05-27T06:37:22;8.50;;;4.27;;
12535;SDS011;6334;48.696;2.114;2023-05-27T06:39:52;7.93;;;4.20;;
12535;SDS011;6334;48.696;2.114;2023-05-27T06:42:22;10.10;;;4.00;;
12535;SDS011;6334;48.696;2.114;2023-05-27T06:44:53;11.70;;;4.60;;
12535;SDS011;6334;48.696;2.114;2023-05-27T06:47:23;9.50;;;4.17;;
12535;SDS011;6334;48.696;2.114;2023-05-27T06:49:54;9.17;;;4.27;;
12535;SDS011;6334;48.696;2.114;2023-05-27T06:52:24;11.70;;;4.10;;
12535;SDS011;6334;48.696;2.114;2023-05-27T06:54:55;7.23;;;4.30;;
12535;SDS011;6334;48.696;2.114;2023-05-27T06:57:25;10.73;;;4.60;;
12535;SDS011;6334;48.696;2.114;2023-05-27T06:59:56;10.63;;;4.47;;
12535;SDS011;6334;48.696;2.114;2023-05-27T07:02:26;11.50;;;4.20;;
12535;SDS011;6334;48.696;2.114;2023-05-27T07:04:56;8.80;;;4.57;;
12535;SDS011;6334;48.696;2.114;2023-05-27T07:07:28;10.37;;;4.37;;
12535;SDS011;6334;48.696;2.114;2023-05-27T07:09:59;12.23;;;4.50;;
12535;SDS011;6334;48.696;2.114;2023-05-27T07:12:29;9.17;;;4.40;;
12535;SDS011;6334;48.696;2.114;2023-05-27T07:15:00;7.17;;;3.97;;
12535;SDS011;6334;48.696;2.114;2023-05-27T07:17:30;10.03;;;4.07;;
12535;SDS011;6334;48.696;2.114;2023-05-27T07:20:01;10.70;;;3.93;;
12535;SDS011;6334;48.696;2.114;2023-05-27T07:22:31;10.10;;;4.47;;
12535;SDS011;6334;48.696;2.114;2023-05-27T07:25:02;10.33;;;4.53;;
12535;SDS011;6334;48.696;2.114;2023-05-27T07:27:32;8.57;;;4.17;;
12535;SDS011;6334;48.696;2.114;2023-05-27T07:30:03;11.67;;;4.47;;
12535;SDS011;6334;48.696;2.114;2023-05-27T07:32:33;11.30;;;5.07;;
12535;SDS011;6334;48.696;2.114;2023-05-27T07:35:04;6.43;;;4.00;;
12535;SDS011;6334;48.696;2.114;2023-05-27T07:37:34;9.63;;;4.13;;
12535;SDS011;6334;48.696;2.114;2023-05-27T07:40:05;12.13;;;4.50;;
12535;SDS011;6334;48.696;2.114;2023-05-27T07:42:36;9.77;;;4.20;;
12535;SDS011;6334;48.696;2.114;2023-05-27T07:45:06;10.90;;;4.37;;
12535;SDS011;6334;48.696;2.114;2023-05-27T07:47:36;8.17;;;3.93;;
12535;SDS011;6334;48.696;2.114;2023-05-27T07:50:07;10.10;;;4.73;;
12535;SDS011;6334;48.696;2.114;2023-05-27T07:52:38;8.47;;;4.47;;
12535;SDS011;6334;48.696;2.114;2023-05-27T07:55:08;14.17;;;5.17;;
12535;SDS011;6334;48.696;2.114;2023-05-27T07:57:38;11.30;;;4.63;;
12535;SDS011;6334;48.696;2.114;2023-05-27T08:00:08;10.23;;;4.50;;
12535;SDS011;6334;48.696;2.114;2023-05-27T08:02:38;11.07;;;4.63;;
12535;SDS011;6334;48.696;2.114;2023-05-27T08:05:09;12.00;;;4.33;;
12535;SDS011;6334;48.696;2.114;2023-05-27T08:07:39;12.80;;;4.73;;
12535;SDS011;6334;48.696;2.114;2023-05-27T08:10:10;12.13;;;4.83;;
12535;SDS011;6334;48.696;2.114;2023-05-27T08:12:40;8.23;;;4.17;;
12535;SDS011;6334;48.696;2.114;2023-05-27T08:15:10;11.53;;;4.60;;
12535;SDS011;6334;48.696;2.114;2023-05-27T08:17:42;8.67;;;4.33;;
12535;SDS011;6334;48.696;2.114;2023-05-27T08:20:13;8.70;;;4.40;;
12535;SDS011;6334;48.696;2.114;2023-05-27T08:22:43;9.27;;;4.50;;
12535;SDS011;6334;48.696;2.114;2023-05-27T08:25:13;11.60;;;4.57;;
12535;SDS011;6334;48.696;2.114;2023-05-27T08:27:53;9.70;;;4.97;;
12535;SDS011;6334;48.696;2.114;2023-05-27T08:30:23;9.87;;;4.37;;
12535;SDS011;6334;48.696;2.114;2023-05-27T08:32:54;11.97;;;5.10;;
12535;SDS011;6334;48.696;2.114;2023-05-27T08:35:24;8.43;;;4.50;;
12535;SDS011;6334;48.696;2.114;2023-05-27T08:37:54;11.10;;;5.00;;
12535;SDS011;6334;48.696;2.114;2023-05-27T08:40:25;8.30;;;4.37;;
12535;SDS011;6334;48.696;2.114;2023-05-27T08:42:55;7.63;;;4.40;;
12535;SDS011;6334;48.696;2.114;2023-05-27T08:45:26;8.47;;;4.50;;
12535;SDS011;6334;48.696;2.114;2023-05-27T08:47:56;10.43;;;5.00;;
12535;SDS011;6334;48.696;2.114;2023-05-27T08:50:27;7.97;;;4.17;;
12535;SDS011;6334;48.696;2.114;2023-05-27T08:52:57;9.77;;;4.50;;
12535;SDS011;6334;48.696;2.114;2023-05-27T08:55:28;9.27;;;4.73;;
12535;SDS011;6334;48.696;2.114;2023-05-27T08:57:58;9.43;;;4.67;;
12535;SDS011;6334;48.696;2.114;2023-05-27T09:00:29;11.80;;;4.87;;
12535;SDS011;6334;48.696;2.114;2023-05-27T09:02:59;11.73;;;5.03;;
12535;SDS011;6334;48.696;2.114;2023-05-27T09:05:30;12.33;;;4.90;;
12535;SDS011;6334;48.696;2.114;2023-05-27T09:08:01;8.80;;;4.27;;
12535;SDS011;6334;48.696;2.114;2023-05-27T09:10:38;13.17;;;5.13;;
12535;SDS011;6334;48.696;2.114;2023-05-27T09:13:08;13.40;;;5.20;;
12535;SDS011;6334;48.696;2.114;2023-05-27T09:15:40;10.10;;;4.97;;
12535;SDS011;6334;48.696;2.114;2023-05-27T09:18:09;11.03;;;4.80;;
12535;SDS011;6334;48.696;2.114;2023-05-27T09:20:39;11.43;;;5.20;;
12535;SDS011;6334;48.696;2.114;2023-05-27T09:23:10;10.10;;;5.23;;
12535;SDS011;6334;48.696;2.114;2023-05-27T09:25:41;12.47;;;5.03;;
12535;SDS011;6334;48.696;2.114;2023-05-27T09:28:11;12.93;;;4.93;;
12535;SDS011;6334;48.696;2.114;2023-05-27T09:30:41;12.90;;;5.47;;
12535;SDS011;6334;48.696;2.114;2023-05-27T09:33:11;12.20;;;4.47;;
12535;SDS011;6334;48.696;2.114;2023-05-27T09:35:42;12.00;;;5.50;;
12535;SDS011;6334;48.696;2.114;2023-05-27T09:38:27;8.77;;;4.73;;
12535;SDS011;6334;48.696;2.114;2023-05-27T09:40:53;11.33;;;4.77;;
12535;SDS011;6334;48.696;2.114;2023-05-27T09:43:26;11.90;;;5.17;;
12535;SDS011;6334;48.696;2.114;2023-05-27T09:45:58;12.10;;;4.80;;
12535;SDS011;6334;48.696;2.114;2023-05-27T09:48:29;11.63;;;4.83;;
12535;SDS011;6334;48.696;2.114;2023-05-27T09:50:59;10.93;;;5.03;;
12535;SDS011;6334;48.696;2.114;2023-05-27T09:53:29;9.53;;;4.63;;
12535;SDS011;6334;48.696;2.114;2023-05-27T09:56:00;10.30;;;4.80;;
12535;SDS011;6334;48.696;2.114;2023-05-27T09:58:31;14.57;;;5.30;;
12535;SDS011;6334;48.696;2.114;2023-05-27T10:01:02;13.27;;;4.70;;
12535;SDS011;6334;48.696;2.114;2023-05-27T10:03:32;10.90;;;4.83;;
12535;SDS011;6334;48.696;2.114;2023-05-27T10:06:03;10.63;;;4.87;;
12535;SDS011;6334;48.696;2.114;2023-05-27T10:08:33;12.83;;;4.80;;
12535;SDS011;6334;48.696;2.114;2023-05-27T10:11:04;9.27;;;5.00;;
12535;SDS011;6334;48.696;2.114;2023-05-27T10:13:34;10.83;;;4.97;;
12535;SDS011;6334;48.696;2.114;2023-05-27T10:16:06;10.30;;;4.90;;
12535;SDS011;6334;48.696;2.114;2023-05-27T10:18:41;11.33;;;4.67;;
12535;SDS011;6334;48.696;2.114;2023-05-27T10:21:06;9.33;;;4.60;;
12535;SDS011;6334;48.696;2.114;2023-05-27T10:23:37;9.40;;;4.43;;
12535;SDS011;6334;48.696;2.114;2023-05-27T10:26:07;10.33;;;4.80;;
12535;SDS011;6334;48.696;2.114;2023-05-27T10:28:39;9.27;;;4.33;;
12535;SDS011;6334;48.696;2.114;2023-05-27T10:31:09;6.97;;;4.47;;
12535;SDS011;6334;48.696;2.114;2023-05-27T10:33:46;9.40;;;4.27;;
12535;SDS011;6334;48.696;2.114;2023-05-27T10:36:16;13.37;;;4.97;;
12535;SDS011;6334;48.696;2.114;2023-05-27T10:38:58;10.47;;;4.67;;
12535;SDS011;6334;48.696;2.114;2023-05-27T10:41:27;9.50;;;4.83;;
12535;SDS011;6334;48.696;2.114;2023-05-27T10:43:58;9.67;;;4.80;;
12535;SDS011;6334;48.696;2.114;2023-05-27T10:46:37;12.80;;;5.53;;
12535;SDS011;6334;48.696;2.114;2023-05-27T10:49:08;15.60;;;5.47;;
12535;SDS011;6334;48.696;2.114;2023-05-27T10:51:32;13.43;;;5.00;;
12535;SDS011;6334;48.696;2.114;2023-05-27T10:54:03;9.30;;;4.73;;
12535;SDS011;6334;48.696;2.114;2023-05-27T10:56:34;11.63;;;4.90;;
12535;SDS011;6334;48.696;2.114;2023-05-27T10:59:04;11.57;;;5.10;;
12535;SDS011;6334;48.696;2.114;2023-05-27T11:01:35;16.30;;;5.50;;
12535;SDS011;6334;48.696;2.114;2023-05-27T11:04:06;8.33;;;4.87;;
12535;SDS011;6334;48.696;2.114;2023-05-27T11:06:36;11.73;;;4.93;;
12535;SDS011;6334;48.696;2.114;2023-05-27T11:09:06;12.83;;;4.67;;
12535;SDS011;6334;48.696;2.114;2023-05-27T11:11:37;11.77;;;4.93;;
12535;SDS011;6334;48.696;2.114;2023-05-27T11:14:07;12.53;;;4.83;;
12535;SDS011;6334;48.696;2.114;2023-05-27T11:16:38;9.97;;;5.30;;
12535;SDS011;6334;48.696;2.114;2023-05-27T11:19:10;15.63;;;5.50;;
12535;SDS011;6334;48.696;2.114;2023-05-27T11:21:43;10.00;;;5.00;;
12535;SDS011;6334;48.696;2.114;2023-05-27T11:24:14;12.60;;;5.10;;
12535;SDS011;6334;48.696;2.114;2023-05-27T11:26:48;14.00;;;5.03;;
12535;SDS011;6334;48.696;2.114;2023-05-27T11:29:19;9.87;;;5.73;;
12535;SDS011;6334;48.696;2.114;2023-05-27T11:31:49;9.00;;;4.90;;
12535;SDS011;6334;48.696;2.114;2023-05-27T11:34:20;11.97;;;5.80;;
12535;SDS011;6334;48.696;2.114;2023-05-27T11:36:50;10.47;;;5.27;;
12535;SDS011;6334;48.696;2.114;2023-05-27T11:39:20;14.83;;;5.07;;
12535;SDS011;6334;48.696;2.114;2023-05-27T11:41:51;13.33;;;5.30;;
12535;SDS011;6334;48.696;2.114;2023-05-27T11:44:22;7.97;;;4.93;;
12535;SDS011;6334;48.696;2.114;2023-05-27T11:46:58;11.20;;;5.30;;
12535;SDS011;6334;48.696;2.114;2023-05-27T11:49:22;12.07;;;5.50;;
12535;SDS011;6334;48.696;2.114;2023-05-27T11:51:55;14.40;;;5.60;;
12535;SDS011;6334;48.696;2.114;2023-05-27T11:54:27;13.23;;;5.13;;
12535;SDS011;6334;48.696;2.114;2023-05-27T11:56:57;8.43;;;4.80;;
12535;SDS011;6334;48.696;2.114;2023-05-27T11:59:27;11.73;;;5.10;;
12535;SDS011;6334;48.696;2.114;2023-05-27T12:01:57;11.40;;;5.13;;
12535;SDS011;6334;48.696;2.114;2023-05-27T12:04:28;9.60;;;4.60;;
12535;SDS011;6334;48.696;2.114;2023-05-27T12:06:58;10.97;;;5.17;;
12535;SDS011;6334;48.696;2.114;2023-05-27T12:09:29;11.90;;;6.03;;
12535;SDS011;6334;48.696;2.114;2023-05-27T12:11:59;12.43;;;5.63;;
12535;SDS011;6334;48.696;2.114;2023-05-27T12:14:30;12.23;;;5.03;;
12535;SDS011;6334;48.696;2.114;2023-05-27T12:17:00;11.10;;;5.43;;
12535;SDS011;6334;48.696;2.114;2023-05-27T12:19:31;9.03;;;4.63;;
12535;SDS011;6334;48.696;2.114;2023-05-27T12:22:01;10.17;;;4.67;;
12535;SDS011;6334;48.696;2.114;2023-05-27T12:24:32;8.07;;;4.57;;
12535;SDS011;6334;48.696;2.114;2023-05-27T12:27:04;10.27;;;5.37;;
12535;SDS011;6334;48.696;2.114;2023-05-27T12:29:34;8.90;;;5.37;;
12535;SDS011;6334;48.696;2.114;2023-05-27T12:32:05;12.00;;;5.03;;
12535;SDS011;6334;48.696;2.114;2023-05-27T12:34:35;10.03;;;5.13;;
12535;SDS011;6334;48.696;2.114;2023-05-27T12:37:06;10.27;;;4.87;;
12535;SDS011;6334;48.696;2.114;2023-05-27T12:39:36;12.03;;;4.73;;
12535;SDS011;6334;48.696;2.114;2023-05-27T12:42:07;8.27;;;5.63;;
12535;SDS011;6334;48.696;2.114;2023-05-27T12:44:37;9.40;;;5.27;;
12535;SDS011;6334;48.696;2.114;2023-05-27T12:47:07;8.23;;;4.97;;
12535;SDS011;6334;48.696;2.114;2023-05-27T12:49:38;7.87;;;5.00;;
12535;SDS011;6334;48.696;2.114;2023-05-27T12:52:08;9.17;;;5.10;;
12535;SDS011;6334;48.696;2.114;2023-05-27T12:54:39;9.53;;;5.20;;
12535;SDS011;6334;48.696;2.114;2023-05-27T12:57:09;9.87;;;5.07;;
12535;SDS011;6334;48.696;2.114;2023-05-27T12:59:40;9.37;;;5.10;;
12535;SDS011;6334;48.696;2.114;2023-05-27T13:02:10;9.20;;;5.10;;
12535;SDS011;6334;48.696;2.114;2023-05-27T13:04:41;9.43;;;5.40;;
12535;SDS011;6334;48.696;2.114;2023-05-27T13:07:11;12.30;;;5.43;;
12535;SDS011;6334;48.696;2.114;2023-05-27T13:09:42;7.50;;;4.93;;
12535;SDS011;6334;48.696;2.114;2023-05-27T13:12:12;8.97;;;4.97;;
12535;SDS011;6334;48.696;2.114;2023-05-27T13:14:44;10.93;;;5.50;;
12535;SDS011;6334;48.696;2.114;2023-05-27T13:17:14;7.60;;;5.17;;
12535;SDS011;6334;48.696;2.114;2023-05-27T13:19:45;12.97;;;5.37;;
12535;SDS011;6334;48.696;2.114;2023-05-27T13:22:15;9.83;;;5.27;;
12535;SDS011;6334;48.696;2.114;2023-05-27T13:24:45;8.17;;;5.33;;
12535;SDS011;6334;48.696;2.114;2023-05-27T13:27:16;9.23;;;5.00;;
12535;SDS011;6334;48.696;2.114;2023-05-27T13:29:46;9.90;;;5.27;;
12535;SDS011;6334;48.696;2.114;2023-05-27T13:32:18;10.57;;;5.33;;
12535;SDS011;6334;48.696;2.114;2023-05-27T13:34:49;10.23;;;5.50;;
12535;SDS011;6334;48.696;2.114;2023-05-27T13:37:19;9.47;;;5.17;;
12535;SDS011;6334;48.696;2.114;2023-05-27T13:39:50;11.63;;;5.23;;
12535;SDS011;6334;48.696;2.114;2023-05-27T13:42:20;7.90;;;5.10;;
12535;SDS011;6334;48.696;2.114;2023-05-27T13:44:51;10.03;;;5.23;;
12535;SDS011;6334;48.696;2.114;2023-05-27T13:47:21;10.73;;;5.23;;
12535;SDS011;6334;48.696;2.114;2023-05-27T13:49:51;9.77;;;5.43;;
12535;SDS011;6334;48.696;2.114;2023-05-27T13:52:25;9.17;;;4.80;;
12535;SDS011;6334;48.696;2.114;2023-05-27T13:54:55;8.50;;;4.90;;
12535;SDS011;6334;48.696;2.114;2023-05-27T13:57:26;12.87;;;5.50;;
12535;SDS011;6334;48.696;2.114;2023-05-27T13:59:56;8.53;;;5.23;;
12535;SDS011;6334;48.696;2.114;2023-05-27T14:02:27;10.60;;;5.43;;
12535;SDS011;6334;48.696;2.114;2023-05-27T14:04:57;8.80;;;5.03;;
12535;SDS011;6334;48.696;2.114;2023-05-27T14:07:28;8.50;;;5.30;;
12535;SDS011;6334;48.696;2.114;2023-05-27T14:09:58;8.67;;;5.33;;
12535;SDS011;6334;48.696;2.114;2023-05-27T14:12:29;8.87;;;5.03;;
12535;SDS011;6334;48.696;2.114;2023-05-27T14:14:59;12.37;;;5.63;;
12535;SDS011;6334;48.696;2.114;2023-05-27T14:17:30;9.57;;;5.40;;
12535;SDS011;6334;48.696;2.114;2023-05-27T14:20:00;10.00;;;5.40;;
12535;SDS011;6334;48.696;2.114;2023-05-27T14:22:30;8.30;;;5.23;;
12535;SDS011;6334;48.696;2.114;2023-05-27T14:25:01;9.07;;;5.10;;
12535;SDS011;6334;48.696;2.114;2023-05-27T14:27:31;9.73;;;5.57;;
12535;SDS011;6334;48.696;2.114;2023-05-27T14:30:02;11.33;;;5.63;;
12535;SDS011;6334;48.696;2.114;2023-05-27T14:32:32;10.87;;;5.77;;
12535;SDS011;6334;48.696;2.114;2023-05-27T14:35:03;9.53;;;5.33;;
12535;SDS011;6334;48.696;2.114;2023-05-27T14:37:34;9.97;;;5.43;;
12535;SDS011;6334;48.696;2.114;2023-05-27T14:40:04;8.13;;;5.23;;
12535;SDS011;6334;48.696;2.114;2023-05-27T14:42:35;9.33;;;5.20;;
12535;SDS011;6334;48.696;2.114;2023-05-27T14:45:05;9.30;;;5.10;;
12535;SDS011;6334;48.696;2.114;2023-05-27T14:47:36;8.57;;;5.20;;
12535;SDS011;6334;48.696;2.114;2023-05-27T14:50:06;8.47;;;5.20;;
12535;SDS011;6334;48.696;2.114;2023-05-27T14:52:36;10.70;;;5.70;;
12535;SDS011;6334;48.696;2.114;2023-05-27T14:55:07;10.00;;;5.80;;
12535;SDS011;6334;48.696;2.114;2023-05-27T14:57:39;9.67;;;4.97;;
12535;SDS011;6334;48.696;2.114;2023-05-27T15:00:09;8.40;;;5.00;;
12535;SDS011;6334;48.696;2.114;2023-05-27T15:02:40;9.10;;;5.00;;
12535;SDS011;6334;48.696;2.114;2023-05-27T15:05:11;9.03;;;5.17;;
12535;SDS011;6334;48.696;2.114;2023-05-27T15:07:42;9.90;;;5.20;;
12535;SDS011;6334;48.696;2.114;2023-05-27T15:10:12;10.70;;;6.03;;
12535;SDS011;6334;48.696;2.114;2023-05-27T15:12:43;9.20;;;5.20;;
12535;SDS011;6334;48.696;2.114;2023-05-27T15:15:19;10.57;;;4.93;;
12535;SDS011;6334;48.696;2.114;2023-05-27T15:17:49;11.30;;;6.03;;